Time;durP1;ratioP1;P1;durP2;ratioP2;P2;SDS_P1;SDS_P2;PMS_P1;PMS_P2;Temp;Humidity;BMP_temperature;BMP_pressure;BME280_temperature;BME280_humidity;BME280_pressure;Samples;Min_cycle;Max_cycle;Signal;HPM_P1;HPM_P2
2022/07/09 00:00:03;;;;;;;7.23;4.70;;;15.40;99.90;;;;;;4204531;28;20225;-78
2022/07/09 00:02:05;;;;;;;6.43;4.63;;;15.40;99.90;;;;;;4185872;28;20534;-78
2022/07/09 00:04:07;;;;;;;5.40;4.23;;;15.40;99.90;;;;;;4201912;28;20738;-78
2022/07/09 00:06:09;;;;;;;6.27;4.23;;;15.40;99.90;;;;;;4205321;28;20292;-78
2022/07/09 00:08:13;;;;;;;5.33;4.03;;;15.40;99.90;;;;;;4204883;28;20245;-78
2022/07/09 00:10:15;;;;;;;6.93;4.57;;;15.40;99.90;;;;;;4201669;28;20748;-78
2022/07/09 00:12:17;;;;;;;5.50;4.03;;;15.30;99.90;;;;;;4187100;28;20216;-78
2022/07/09 00:14:21;;;;;;;5.43;4.00;;;15.40;99.90;;;;;;4205403;28;20562;-78
2022/07/09 00:16:22;;;;;;;5.33;3.93;;;15.30;99.90;;;;;;4209613;28;20282;-78
2022/07/09 00:18:24;;;;;;;6.13;4.50;;;15.30;99.90;;;;;;4207442;28;20206;-78
2022/07/09 00:20:26;;;;;;;9.23;5.73;;;15.30;99.90;;;;;;4204908;28;20221;-79
2022/07/09 00:22:28;;;;;;;11.60;6.70;;;15.30;99.90;;;;;;4205844;28;20557;-78
2022/07/09 00:24:30;;;;;;;7.83;5.53;;;15.30;99.90;;;;;;4203650;28;20207;-79
2022/07/09 00:26:32;;;;;;;7.47;5.00;;;15.50;99.90;;;;;;4202500;28;20205;-78
2022/07/09 00:28:34;;;;;;;7.73;5.00;;;15.30;99.90;;;;;;4206949;28;20210;-78
2022/07/09 00:30:38;;;;;;;5.80;4.67;;;15.30;99.90;;;;;;4202382;28;20261;-78
2022/07/09 00:32:40;;;;;;;6.53;4.40;;;15.20;99.90;;;;;;4206653;28;20243;-78
2022/07/09 00:34:42;;;;;;;5.40;4.10;;;15.30;99.90;;;;;;4199070;28;20230;-79
2022/07/09 00:36:43;;;;;;;5.60;3.77;;;15.30;99.90;;;;;;4203646;28;20252;-78
2022/07/09 00:38:46;;;;;;;6.07;3.90;;;15.20;99.90;;;;;;4203896;28;20695;-78
2022/07/09 00:40:48;;;;;;;4.80;3.90;;;15.30;99.90;;;;;;4206683;28;20615;-79
2022/07/09 00:42:49;;;;;;;6.73;4.03;;;15.30;99.90;;;;;;4204511;28;20210;-79
2022/07/09 00:44:51;;;;;;;6.37;3.80;;;15.20;99.90;;;;;;4205636;28;20276;-78
2022/07/09 00:46:55;;;;;;;7.27;4.17;;;15.20;99.90;;;;;;4205345;28;20209;-78
2022/07/09 00:48:56;;;;;;;6.80;3.83;;;15.20;99.90;;;;;;4201551;28;20300;-78
2022/07/09 00:51:01;;;;;;;5.60;3.67;;;15.20;99.90;;;;;;4202163;28;20313;-78
2022/07/09 00:53:03;;;;;;;4.90;3.50;;;15.20;99.90;;;;;;4205754;28;20212;-79
2022/07/09 00:55:07;;;;;;;7.03;3.33;;;15.30;99.90;;;;;;4201587;28;20231;-78
2022/07/09 00:57:10;;;;;;;5.60;3.80;;;15.30;99.90;;;;;;4202850;28;20264;-79
2022/07/09 00:59:13;;;;;;;4.43;3.77;;;15.20;99.90;;;;;;4201349;28;20216;-78
2022/07/09 01:01:15;;;;;;;5.00;3.67;;;15.20;99.90;;;;;;4207129;28;20221;-78
2022/07/09 01:03:18;;;;;;;6.47;3.60;;;15.20;99.90;;;;;;4211972;28;20286;-79
2022/07/09 01:05:20;;;;;;;5.80;3.53;;;15.20;99.90;;;;;;4214472;28;20277;-78
2022/07/09 01:07:22;;;;;;;7.60;3.50;;;15.20;99.90;;;;;;4214900;28;20247;-79
2022/07/09 01:09:24;;;;;;;5.47;3.33;;;15.30;99.90;;;;;;4211012;28;20250;-78
2022/07/09 01:11:26;;;;;;;4.53;3.20;;;15.20;99.90;;;;;;4211742;28;20233;-79
2022/07/09 01:13:28;;;;;;;3.20;2.90;;;15.20;99.90;;;;;;4204996;28;20678;-79
2022/07/09 01:15:29;;;;;;;7.30;3.90;;;15.20;99.90;;;;;;4205580;28;20665;-79
2022/07/09 01:17:38;;;;;;;3.43;2.80;;;15.20;99.90;;;;;;4201956;28;20293;-78
2022/07/09 01:19:41;;;;;;;5.13;3.07;;;15.20;99.90;;;;;;4199337;28;20212;-79
2022/07/09 01:21:45;;;;;;;4.17;2.90;;;15.20;99.90;;;;;;4200804;28;20241;-78
2022/07/09 01:23:46;;;;;;;3.93;3.00;;;15.20;99.90;;;;;;4202963;28;20586;-78
2022/07/09 01:25:48;;;;;;;4.17;3.10;;;15.20;99.90;;;;;;4205476;28;20729;-79
2022/07/09 01:27:50;;;;;;;5.33;3.43;;;15.20;99.90;;;;;;4202866;28;20695;-78
2022/07/09 01:29:52;;;;;;;4.80;3.40;;;15.20;99.90;;;;;;4203924;28;20225;-78
2022/07/09 01:31:54;;;;;;;3.73;3.00;;;15.20;99.90;;;;;;4206718;28;20227;-77
2022/07/09 01:33:56;;;;;;;3.83;2.90;;;15.20;99.90;;;;;;4206068;28;20660;-79
2022/07/09 01:35:58;;;;;;;5.10;3.30;;;15.20;99.90;;;;;;4205487;28;20649;-79
2022/07/09 01:38:01;;;;;;;6.10;3.10;;;15.20;99.90;;;;;;4208269;28;20216;-79
2022/07/09 01:40:03;;;;;;;3.73;3.07;;;15.20;99.90;;;;;;4209959;28;20658;-78
2022/07/09 01:42:05;;;;;;;3.33;2.90;;;15.20;99.90;;;;;;4203642;28;20209;-79
2022/07/09 01:44:08;;;;;;;3.60;3.13;;;15.20;99.90;;;;;;4201955;28;20248;-78
2022/07/09 01:46:09;;;;;;;4.73;3.40;;;15.20;99.90;;;;;;4203195;28;20219;-78
2022/07/09 01:48:11;;;;;;;3.47;2.67;;;15.20;99.90;;;;;;4202933;28;20523;-78
2022/07/09 01:50:13;;;;;;;4.90;2.87;;;15.20;99.90;;;;;;4203122;28;20244;-78
2022/07/09 01:52:15;;;;;;;4.07;2.93;;;15.20;99.90;;;;;;4205157;28;20305;-78
2022/07/09 01:54:18;;;;;;;5.70;3.10;;;15.20;99.90;;;;;;4204721;28;20226;-78
2022/07/09 01:56:20;;;;;;;3.70;3.10;;;15.20;99.90;;;;;;4208174;28;20234;-78
2022/07/09 01:58:22;;;;;;;3.70;3.03;;;15.20;99.90;;;;;;4205496;28;20675;-78
2022/07/09 02:00:24;;;;;;;4.73;3.07;;;15.20;99.90;;;;;;4205240;28;20236;-78
2022/07/09 02:02:26;;;;;;;3.20;2.90;;;15.20;99.90;;;;;;4206221;28;20222;-78
2022/07/09 02:04:28;;;;;;;4.57;3.20;;;15.20;99.90;;;;;;4203094;28;20242;-78
2022/07/09 02:06:30;;;;;;;5.03;3.30;;;15.20;99.90;;;;;;4204400;28;20201;-78
2022/07/09 02:08:32;;;;;;;4.50;3.17;;;15.20;99.90;;;;;;4201584;28;20212;-78
2022/07/09 02:10:35;;;;;;;4.20;3.03;;;15.20;99.90;;;;;;4199023;28;20328;-79
2022/07/09 02:12:37;;;;;;;5.40;3.43;;;15.10;99.90;;;;;;4199956;28;20576;-79
2022/07/09 02:14:39;;;;;;;4.00;3.23;;;15.10;99.90;;;;;;4198875;28;20219;-79
2022/07/09 02:16:41;;;;;;;4.33;3.33;;;15.10;99.90;;;;;;4202162;28;20309;-78
2022/07/09 02:18:44;;;;;;;3.67;3.00;;;15.10;99.90;;;;;;4199427;28;20301;-78
2022/07/09 02:20:46;;;;;;;5.40;3.13;;;15.10;99.90;;;;;;4202950;28;20283;-78
2022/07/09 02:22:48;;;;;;;4.00;3.00;;;15.10;99.90;;;;;;4203151;28;20214;-79
2022/07/09 02:24:49;;;;;;;4.20;3.23;;;15.10;99.90;;;;;;4207302;28;20213;-78
2022/07/09 02:26:53;;;;;;;4.77;3.40;;;15.10;99.90;;;;;;4204433;28;20221;-79
2022/07/09 02:28:55;;;;;;;4.80;3.50;;;15.00;99.90;;;;;;4203255;28;20214;-79
2022/07/09 02:30:57;;;;;;;5.53;3.40;;;15.10;99.90;;;;;;4208218;28;20239;-78
2022/07/09 02:32:59;;;;;;;4.77;3.60;;;15.10;99.90;;;;;;4203187;28;20215;-78
2022/07/09 02:35:01;;;;;;;5.60;3.87;;;15.10;99.90;;;;;;4206986;28;20203;-78
2022/07/09 02:37:03;;;;;;;4.27;3.13;;;15.10;99.90;;;;;;4200512;28;20221;-79
2022/07/09 02:39:05;;;;;;;5.17;3.40;;;15.00;99.90;;;;;;4200702;28;20304;-78
2022/07/09 02:41:07;;;;;;;3.20;2.90;;;15.00;99.90;;;;;;4204649;28;20235;-78
2022/07/09 02:43:10;;;;;;;3.83;3.40;;;15.00;99.90;;;;;;4208926;28;20206;-78
2022/07/09 02:45:12;;;;;;;4.30;3.30;;;14.90;99.90;;;;;;4199515;28;20209;-79
2022/07/09 02:48:04;;;;;;;4.33;3.27;;;14.90;99.90;;;;;;4203908;28;20209;-78
2022/07/09 02:50:57;;;;;;;4.20;3.50;;;14.90;99.90;;;;;;4204105;28;20249;-77
2022/07/09 02:53:49;;;;;;;6.83;4.27;;;14.80;99.90;;;;;;4210874;28;20198;-78
2022/07/09 02:56:41;;;;;;;3.60;2.93;;;14.80;99.90;;;;;;4208721;28;20214;-78
2022/07/09 02:59:35;;;;;;;5.03;3.20;;;14.80;99.90;;;;;;4205677;28;20292;-78
2022/07/09 03:02:27;;;;;;;5.10;3.53;;;14.70;99.90;;;;;;4200184;28;20708;-78
2022/07/09 03:05:20;;;;;;;3.37;3.03;;;14.80;99.90;;;;;;4199131;28;20237;-77
2022/07/09 03:08:12;;;;;;;4.07;3.00;;;14.70;99.90;;;;;;4198990;28;20240;-78
2022/07/09 03:11:06;;;;;;;3.53;2.90;;;14.70;99.90;;;;;;4202974;28;20257;-77
2022/07/09 03:13:58;;;;;;;12.97;3.20;;;14.70;99.90;;;;;;4198488;28;20579;-78
2022/07/09 03:16:51;;;;;;;4.40;3.40;;;14.60;99.90;;;;;;4206059;28;20309;-78
2022/07/09 03:19:44;;;;;;;4.07;3.10;;;14.60;99.90;;;;;;4204686;28;20216;-79
2022/07/09 04:11:36;;;;;;;4.80;3.50;;;14.80;99.90;;;;;;4197629;28;20216;-77
2022/07/09 04:13:39;;;;;;;4.53;3.37;;;14.80;99.90;;;;;;4205638;28;20236;-77
2022/07/09 04:15:41;;;;;;;4.97;3.10;;;14.80;99.90;;;;;;4203645;28;20228;-77
2022/07/09 04:17:48;;;;;;;5.50;3.30;;;14.70;99.90;;;;;;4204951;28;20233;-77
2022/07/09 04:19:49;;;;;;;4.23;3.23;;;14.70;99.90;;;;;;4207002;28;20228;-77
2022/07/09 04:21:51;;;;;;;3.37;2.80;;;14.70;99.90;;;;;;4207251;28;20236;-77
2022/07/09 04:23:53;;;;;;;4.73;3.10;;;14.80;99.90;;;;;;4213646;28;20468;-77
2022/07/09 04:25:55;;;;;;;4.70;3.30;;;14.80;99.90;;;;;;4207239;28;20201;-77
2022/07/09 04:27:58;;;;;;;4.43;3.07;;;14.80;99.90;;;;;;4185949;28;20650;-77
2022/07/09 04:30:02;;;;;;;4.73;3.20;;;14.90;99.90;;;;;;4190546;28;20220;-77
2022/07/09 04:32:04;;;;;;;5.93;2.97;;;14.90;99.90;;;;;;4205304;28;20592;-77
2022/07/09 04:34:06;;;;;;;3.40;3.10;;;14.90;99.90;;;;;;4205270;28;20213;-77
2022/07/09 04:36:12;;;;;;;6.33;3.47;;;15.00;99.90;;;;;;4208842;28;20232;-77
2022/07/09 04:38:13;;;;;;;5.77;3.10;;;15.00;99.90;;;;;;4205741;28;20209;-77
2022/07/09 04:40:15;;;;;;;3.47;2.93;;;15.10;99.90;;;;;;4188211;28;20313;-77
2022/07/09 04:42:19;;;;;;;5.43;2.90;;;15.20;99.90;;;;;;4203628;28;20237;-77
2022/07/09 04:44:21;;;;;;;3.33;2.67;;;15.20;99.90;;;;;;4202923;28;20201;-77
2022/07/09 04:46:25;;;;;;;4.00;2.93;;;15.20;99.90;;;;;;4187341;28;20208;-77
2022/07/09 04:48:26;;;;;;;4.43;2.80;;;15.30;99.90;;;;;;4207292;28;20211;-77
2022/07/09 04:50:29;;;;;;;4.40;2.80;;;15.30;99.90;;;;;;4185786;28;20771;-77
2022/07/09 04:52:31;;;;;;;4.80;2.63;;;15.40;99.90;;;;;;4207269;28;20312;-77
2022/07/09 04:54:32;;;;;;;5.00;3.30;;;15.40;99.90;;;;;;4208989;28;20584;-77
2022/07/09 04:56:34;;;;;;;5.00;3.30;;;15.40;99.90;;;;;;4196252;28;20222;-77
2022/07/09 04:58:37;;;;;;;4.50;2.90;;;15.50;99.90;;;;;;4208963;28;20246;-77
2022/07/09 05:00:39;;;;;;;4.37;3.27;;;15.50;99.90;;;;;;4207111;28;20223;-77
2022/07/09 05:02:42;;;;;;;5.70;3.03;;;15.60;99.90;;;;;;4190370;28;20211;-77
2022/07/09 05:04:47;;;;;;;5.57;3.50;;;15.60;99.90;;;;;;4204170;28;20252;-77
2022/07/09 05:06:49;;;;;;;4.43;3.60;;;15.60;99.90;;;;;;4211105;28;20581;-77
2022/07/09 05:08:51;;;;;;;5.13;3.50;;;15.70;99.90;;;;;;4207890;28;20650;-77
2022/07/09 05:10:53;;;;;;;4.97;3.20;;;15.70;99.90;;;;;;4185336;28;20319;-77
2022/07/09 05:12:55;;;;;;;5.70;3.37;;;15.70;99.90;;;;;;4204179;28;20657;-77
2022/07/09 05:14:57;;;;;;;5.33;3.27;;;15.80;99.90;;;;;;4204158;28;20799;-77
2022/07/09 05:16:59;;;;;;;5.67;3.50;;;15.80;99.90;;;;;;4185611;28;20698;-77
2022/07/09 05:19:02;;;;;;;3.27;2.97;;;15.90;99.90;;;;;;4206545;28;20214;-77
2022/07/09 05:21:04;;;;;;;4.70;3.00;;;15.90;99.90;;;;;;4213259;22;20703;-77
2022/07/09 05:23:06;;;;;;;5.83;3.40;;;15.90;99.90;;;;;;4185629;28;20755;-77
2022/07/09 05:25:08;;;;;;;5.13;3.57;;;15.90;99.90;;;;;;4185723;28;20209;-74
2022/07/09 05:27:12;;;;;;;3.77;3.30;;;16.00;99.90;;;;;;4178692;28;20258;-75
2022/07/09 05:29:14;;;;;;;5.67;3.57;;;16.00;99.90;;;;;;4189849;28;20236;-75
2022/07/09 05:31:16;;;;;;;4.93;3.20;;;16.10;99.90;;;;;;4182176;28;20265;-75
2022/07/09 05:33:19;;;;;;;7.53;3.77;;;16.00;99.90;;;;;;4181190;28;20223;-75
2022/07/09 05:35:22;;;;;;;6.80;3.33;;;16.10;99.90;;;;;;4177406;28;20677;-76
2022/07/09 05:37:24;;;;;;;7.40;3.40;;;16.20;99.90;;;;;;4178722;28;20213;-75
2022/07/09 05:39:26;;;;;;;3.63;3.23;;;16.20;99.90;;;;;;4181425;28;20665;-76
2022/07/09 05:41:28;;;;;;;4.90;3.10;;;16.30;99.90;;;;;;4181510;28;20237;-75
2022/07/09 05:43:30;;;;;;;5.07;3.27;;;16.30;99.90;;;;;;4181819;28;20229;-76
2022/07/09 05:45:32;;;;;;;6.67;3.50;;;16.30;99.90;;;;;;4179058;28;20224;-76
2022/07/09 05:47:34;;;;;;;6.27;3.60;;;16.40;99.90;;;;;;4181040;28;20236;-75
2022/07/09 05:49:36;;;;;;;4.60;3.30;;;16.40;99.90;;;;;;4180636;28;20587;-75
2022/07/09 05:51:39;;;;;;;7.53;3.77;;;16.40;99.90;;;;;;4175624;28;20230;-76
2022/07/09 05:53:41;;;;;;;7.93;3.80;;;16.50;99.90;;;;;;4180155;28;20646;-77
2022/07/09 05:55:44;;;;;;;7.43;3.93;;;16.50;99.90;;;;;;4181960;28;20672;-76
2022/07/09 05:57:46;;;;;;;11.27;4.30;;;16.40;99.90;;;;;;4176437;28;20238;-75
2022/07/09 05:59:48;;;;;;;7.60;4.30;;;16.40;99.90;;;;;;4174484;28;20202;-75
2022/07/09 06:01:50;;;;;;;5.33;4.03;;;16.40;99.90;;;;;;4178005;28;20297;-76
2022/07/09 06:03:52;;;;;;;8.37;3.73;;;16.50;99.90;;;;;;4181570;28;20576;-76
2022/07/09 06:05:54;;;;;;;6.37;3.90;;;16.50;99.90;;;;;;4178782;28;20217;-76
2022/07/09 06:07:57;;;;;;;5.73;3.97;;;16.50;99.90;;;;;;4180667;28;20281;-76
2022/07/09 06:09:59;;;;;;;8.20;3.97;;;16.50;99.90;;;;;;4180127;28;20209;-76
2022/07/09 06:12:01;;;;;;;7.77;3.90;;;16.50;99.90;;;;;;4180506;28;20234;-76
2022/07/09 06:14:03;;;;;;;7.23;4.80;;;16.50;99.90;;;;;;4179952;28;20234;-76
2022/07/09 06:16:06;;;;;;;5.67;3.90;;;16.60;99.90;;;;;;4178135;28;20585;-78
2022/07/09 06:18:08;;;;;;;6.30;4.00;;;16.60;99.90;;;;;;4174783;28;20770;-77
2022/07/09 06:20:10;;;;;;;8.07;4.03;;;16.60;99.90;;;;;;4179533;28;20296;-77
2022/07/09 06:22:12;;;;;;;6.40;4.60;;;16.60;99.90;;;;;;4179328;28;20610;-76
2022/07/09 06:24:15;;;;;;;4.83;3.93;;;16.70;99.90;;;;;;4195033;28;20205;-78
2022/07/09 06:26:17;;;;;;;5.73;3.40;;;16.60;99.90;;;;;;4177529;28;20293;-77
2022/07/09 06:28:19;;;;;;;5.43;3.90;;;16.70;99.90;;;;;;4180235;28;20241;-77
2022/07/09 06:30:21;;;;;;;5.47;3.63;;;16.70;99.90;;;;;;4180360;28;20277;-77
2022/07/09 06:32:23;;;;;;;5.57;3.70;;;16.70;99.90;;;;;;4181266;28;20254;-77
2022/07/09 06:34:25;;;;;;;5.93;4.30;;;16.70;99.90;;;;;;4181199;28;20254;-77
2022/07/09 06:36:27;;;;;;;6.43;4.00;;;16.70;99.90;;;;;;4180348;28;20234;-77
2022/07/09 06:38:30;;;;;;;7.37;4.23;;;16.70;99.90;;;;;;4181197;28;20241;-77
2022/07/09 06:40:34;;;;;;;6.30;4.40;;;16.70;99.90;;;;;;4181236;28;20250;-77
2022/07/09 06:42:35;;;;;;;8.00;4.40;;;16.80;99.90;;;;;;4178676;28;20202;-77
2022/07/09 06:44:37;;;;;;;9.57;4.90;;;16.70;99.90;;;;;;4181367;28;20679;-77
2022/07/09 06:46:39;;;;;;;6.73;3.97;;;16.80;99.90;;;;;;4179753;28;20202;-77
2022/07/09 06:48:41;;;;;;;6.47;4.10;;;16.80;99.90;;;;;;4182307;28;20225;-76
2022/07/09 06:50:43;;;;;;;6.07;4.10;;;16.90;99.90;;;;;;4185038;28;20222;-76
2022/07/09 06:52:46;;;;;;;8.70;4.33;;;16.90;99.90;;;;;;4186140;28;20284;-76
2022/07/09 06:54:48;;;;;;;6.57;4.27;;;17.00;99.90;;;;;;4189194;28;20198;-76
2022/07/09 06:56:51;;;;;;;7.57;4.43;;;17.00;99.90;;;;;;4204530;28;20206;-77
2022/07/09 06:58:53;;;;;;;6.43;4.40;;;17.00;99.90;;;;;;4190355;28;20214;-77
2022/07/09 07:00:55;;;;;;;6.87;4.43;;;17.10;99.90;;;;;;4185750;28;20230;-77
2022/07/09 07:02:59;;;;;;;6.27;3.90;;;17.10;99.90;;;;;;4181406;28;20209;-77
2022/07/09 07:05:00;;;;;;;8.43;4.73;;;17.10;99.90;;;;;;4177214;28;20211;-76
2022/07/09 07:07:03;;;;;;;7.10;4.60;;;17.20;99.90;;;;;;4179524;28;20206;-76
2022/07/09 07:09:08;;;;;;;8.50;4.70;;;17.20;99.90;;;;;;4179729;28;20271;-77
2022/07/09 07:11:10;;;;;;;6.63;4.63;;;17.20;99.90;;;;;;4178318;28;20349;-77
2022/07/09 07:13:13;;;;;;;5.40;4.30;;;17.30;99.90;;;;;;4177188;28;20706;-77
2022/07/09 07:15:15;;;;;;;5.53;4.30;;;17.40;99.90;;;;;;4177277;28;20206;-77
2022/07/09 07:17:17;;;;;;;7.07;4.00;;;17.40;99.90;;;;;;4177945;28;20267;-77
2022/07/09 07:19:20;;;;;;;4.53;3.77;;;17.40;99.90;;;;;;4176443;28;20246;-78
2022/07/09 07:21:22;;;;;;;5.53;3.90;;;17.50;99.90;;;;;;4178334;28;20253;-78
2022/07/09 07:23:24;;;;;;;6.47;4.20;;;17.50;99.90;;;;;;4177591;28;20615;-76
2022/07/09 07:25:26;;;;;;;6.43;4.37;;;17.60;99.90;;;;;;4172994;28;20202;-78
2022/07/09 07:27:28;;;;;;;6.77;4.07;;;17.60;99.90;;;;;;4179583;28;20771;-78
2022/07/09 07:29:32;;;;;;;8.43;4.47;;;17.70;99.90;;;;;;4180909;28;20217;-78
2022/07/09 07:31:33;;;;;;;6.13;4.10;;;17.70;99.90;;;;;;4180558;28;20742;-78
2022/07/09 07:33:35;;;;;;;8.53;4.77;;;17.80;99.90;;;;;;4179168;28;20321;-77
2022/07/09 07:35:37;;;;;;;8.67;5.53;;;17.90;99.90;;;;;;4169115;28;20211;-77
2022/07/09 07:37:39;;;;;;;7.23;5.73;;;17.80;99.90;;;;;;4176998;28;20214;-77
2022/07/09 07:39:41;;;;;;;9.77;6.43;;;17.80;99.90;;;;;;4177201;28;20215;-77
2022/07/09 07:41:44;;;;;;;8.70;5.73;;;17.90;99.90;;;;;;4176550;28;20314;-77
2022/07/09 07:43:46;;;;;;;9.57;5.97;;;17.90;99.90;;;;;;4177905;28;20203;-77
2022/07/09 07:45:50;;;;;;;9.37;6.57;;;17.90;99.90;;;;;;4177414;28;20261;-78
2022/07/09 07:47:54;;;;;;;8.60;6.60;;;17.90;99.90;;;;;;4178620;28;20635;-77
2022/07/09 07:49:56;;;;;;;9.23;5.77;;;17.80;99.90;;;;;;4175841;28;20202;-77
2022/07/09 07:51:58;;;;;;;10.07;6.40;;;17.80;99.90;;;;;;4177695;28;20234;-77
2022/07/09 07:53:59;;;;;;;10.13;6.17;;;17.80;99.90;;;;;;4178939;28;20303;-77
2022/07/09 07:56:02;;;;;;;9.10;6.20;;;17.90;99.90;;;;;;4179966;28;20211;-77
2022/07/09 07:58:04;;;;;;;8.57;6.83;;;17.90;99.90;;;;;;4178541;28;20202;-77
2022/07/09 08:00:07;;;;;;;9.37;5.80;;;17.90;99.90;;;;;;4178670;28;20221;-77
2022/07/09 08:02:10;;;;;;;12.60;5.90;;;17.90;99.90;;;;;;4174804;28;20914;-77
2022/07/09 08:04:13;;;;;;;9.97;6.00;;;18.00;99.90;;;;;;4177108;28;20201;-77
2022/07/09 08:06:14;;;;;;;11.27;5.83;;;18.00;99.90;;;;;;4176754;28;20211;-77
2022/07/09 08:08:18;;;;;;;8.87;5.80;;;18.00;99.90;;;;;;4176682;28;20204;-77
2022/07/09 08:10:20;;;;;;;8.93;5.90;;;18.10;99.90;;;;;;4178440;28;20214;-77
2022/07/09 08:12:22;;;;;;;7.73;5.80;;;18.10;99.90;;;;;;4193566;28;20203;-77
2022/07/09 08:14:24;;;;;;;7.33;5.60;;;18.10;99.90;;;;;;4175748;28;20663;-77
2022/07/09 08:16:26;;;;;;;8.10;5.50;;;18.20;99.90;;;;;;4177797;28;20290;-77
2022/07/09 08:18:29;;;;;;;9.80;5.77;;;18.20;99.90;;;;;;4178982;28;20292;-77
2022/07/09 08:20:31;;;;;;;7.57;5.27;;;18.40;99.90;;;;;;4178693;28;20239;-77
2022/07/09 08:22:33;;;;;;;7.07;5.47;;;18.40;99.90;;;;;;4179513;28;20283;-77
2022/07/09 08:24:34;;;;;;;6.93;5.13;;;18.50;99.90;;;;;;4178817;28;20226;-77
2022/07/09 08:26:36;;;;;;;9.67;5.50;;;18.60;99.90;;;;;;4177812;28;20207;-77
2022/07/09 08:28:38;;;;;;;8.47;5.10;;;18.60;99.90;;;;;;4176875;28;20594;-77
2022/07/09 08:30:40;;;;;;;9.17;5.37;;;18.60;99.90;;;;;;4176274;28;20318;-77
2022/07/09 08:32:42;;;;;;;7.37;4.53;;;18.70;99.90;;;;;;4175686;28;20695;-76
2022/07/09 08:34:45;;;;;;;9.23;4.97;;;18.70;99.90;;;;;;4174615;28;20741;-78
2022/07/09 08:36:47;;;;;;;6.37;5.00;;;18.70;99.90;;;;;;4175981;28;20637;-77
2022/07/09 08:38:49;;;;;;;7.03;4.43;;;18.70;99.90;;;;;;4179362;28;20209;-77
2022/07/09 08:40:51;;;;;;;6.13;4.60;;;18.70;99.90;;;;;;4178086;28;20705;-77
2022/07/09 08:42:54;;;;;;;6.87;4.33;;;18.80;99.90;;;;;;4174575;28;20608;-77
2022/07/09 08:44:57;;;;;;;5.80;4.40;;;18.80;99.90;;;;;;4175254;28;20818;-75
2022/07/09 08:47:02;;;;;;;5.30;3.93;;;18.80;99.90;;;;;;4178663;28;20297;-77
2022/07/09 08:49:04;;;;;;;6.07;4.43;;;18.90;99.90;;;;;;4175545;28;20209;-77
2022/07/09 08:51:08;;;;;;;4.43;3.67;;;18.90;99.90;;;;;;4175414;28;20297;-76
2022/07/09 08:53:11;;;;;;;6.93;4.03;;;18.90;99.90;;;;;;4177809;28;20417;-75
2022/07/09 08:55:13;;;;;;;5.93;4.00;;;18.90;99.90;;;;;;4177952;28;20589;-75
2022/07/09 08:57:15;;;;;;;5.47;4.07;;;18.80;99.90;;;;;;4176032;28;20393;-75
2022/07/09 08:59:17;;;;;;;4.90;3.77;;;18.80;99.90;;;;;;4174531;28;20614;-75
2022/07/09 09:01:18;;;;;;;4.83;3.70;;;18.90;99.90;;;;;;4173912;28;20228;-75
2022/07/09 09:03:21;;;;;;;6.87;3.50;;;18.90;99.90;;;;;;4175373;28;20221;-75
2022/07/09 09:05:22;;;;;;;5.53;3.40;;;18.90;99.90;;;;;;4180172;28;20213;-76
2022/07/09 09:07:29;;;;;;;4.43;3.37;;;18.90;99.90;;;;;;4180058;28;20205;-76
2022/07/09 09:09:36;;;;;;;4.93;3.33;;;19.00;99.90;;;;;;4180181;28;20205;-76
2022/07/09 09:11:39;;;;;;;3.87;3.20;;;19.10;99.90;;;;;;4179162;28;20258;-76
2022/07/09 09:13:42;;;;;;;5.30;3.40;;;19.10;99.90;;;;;;4180040;28;20225;-76
2022/07/09 09:15:44;;;;;;;4.37;3.67;;;19.10;99.90;;;;;;4180192;28;20232;-76
2022/07/09 09:17:46;;;;;;;5.87;3.67;;;19.10;99.90;;;;;;4180147;28;20263;-76
2022/07/09 09:19:48;;;;;;;5.63;4.10;;;19.20;99.90;;;;;;4181928;28;20240;-76
2022/07/09 09:21:54;;;;;;;5.10;3.70;;;19.20;99.90;;;;;;4180720;28;20240;-76
2022/07/09 09:23:59;;;;;;;4.93;3.87;;;19.30;99.90;;;;;;4171707;28;20206;-76
2022/07/09 09:26:09;;;;;;;5.57;3.30;;;19.30;99.90;;;;;;4178352;28;20202;-76
2022/07/09 09:28:14;;;;;;;4.77;2.80;;;19.30;99.90;;;;;;4179716;28;20705;-76
2022/07/09 09:30:15;;;;;;;3.70;3.10;;;19.40;99.90;;;;;;4179379;28;20284;-76
2022/07/09 09:32:22;;;;;;;3.37;3.07;;;19.40;99.90;;;;;;4176118;28;20204;-76
2022/07/09 09:34:24;;;;;;;3.77;2.93;;;19.50;99.90;;;;;;4177484;28;20252;-76
2022/07/09 09:36:31;;;;;;;4.80;3.23;;;19.50;99.90;;;;;;4178362;28;20206;-76
2022/07/09 09:38:33;;;;;;;3.60;3.00;;;19.60;99.90;;;;;;4198565;28;20216;-76
2022/07/09 09:40:45;;;;;;;4.27;3.10;;;19.60;99.90;;;;;;4184124;28;20753;-76
2022/07/09 09:42:49;;;;;;;4.63;3.10;;;19.70;99.90;;;;;;4186984;28;20213;-76
2022/07/09 09:44:52;;;;;;;3.73;2.80;;;19.80;99.90;;;;;;4188236;28;20210;-76
2022/07/09 09:46:54;;;;;;;4.53;3.07;;;19.90;99.90;;;;;;4181496;28;20205;-76
2022/07/09 09:48:58;;;;;;;4.50;3.40;;;19.90;99.90;;;;;;4184490;28;20208;-76
2022/07/09 09:51:02;;;;;;;7.17;3.20;;;19.90;99.90;;;;;;4183311;28;20311;-76
2022/07/09 09:53:05;;;;;;;4.83;3.30;;;20.00;99.90;;;;;;4186429;28;20583;-75
2022/07/09 09:55:08;;;;;;;4.73;3.10;;;20.10;99.90;;;;;;4184275;28;20221;-75
2022/07/09 09:57:13;;;;;;;5.77;3.00;;;20.20;99.90;;;;;;4185345;28;20244;-76
2022/07/09 09:59:16;;;;;;;4.90;2.90;;;20.30;99.90;;;;;;4179195;28;20206;-76
2022/07/09 10:01:18;;;;;;;3.10;2.80;;;20.40;99.90;;;;;;4178007;28;20260;-75
2022/07/09 10:03:21;;;;;;;4.93;3.03;;;20.50;99.90;;;;;;4177473;28;20696;-76
2022/07/09 10:05:23;;;;;;;5.10;3.20;;;20.50;99.90;;;;;;4179612;28;20209;-76
2022/07/09 10:07:25;;;;;;;4.67;2.83;;;20.60;99.90;;;;;;4178612;28;20256;-76
2022/07/09 10:09:27;;;;;;;5.10;3.10;;;20.60;99.90;;;;;;4180622;28;20257;-76
2022/07/09 10:11:39;;;;;;;5.20;3.00;;;20.70;99.90;;;;;;4180605;28;20231;-76
2022/07/09 10:13:52;;;;;;;4.57;2.80;;;20.80;99.90;;;;;;4180062;28;20766;-76
2022/07/09 10:15:56;;;;;;;2.93;2.27;;;20.90;99.90;;;;;;4178122;28;20667;-76
2022/07/09 10:18:00;;;;;;;4.57;2.63;;;20.90;99.90;;;;;;4180524;28;20234;-76
2022/07/09 10:20:07;;;;;;;3.03;2.30;;;20.90;99.90;;;;;;4174125;28;20210;-76
2022/07/09 10:22:10;;;;;;;3.70;2.40;;;20.90;99.90;;;;;;4194289;28;20335;-76
2022/07/09 10:24:12;;;;;;;3.17;2.30;;;20.90;99.90;;;;;;4191381;28;20224;-76
2022/07/09 10:26:14;;;;;;;2.77;2.10;;;20.90;99.90;;;;;;4179289;28;20290;-76
2022/07/09 10:28:16;;;;;;;2.20;2.00;;;21.00;99.90;;;;;;4177368;28;20237;-76
2022/07/09 10:30:36;;;;;;;2.47;2.10;;;21.10;99.90;;;;;;4239360;27;20591;-77
2022/07/09 10:32:42;;;;;;;3.03;2.00;;;21.20;99.90;;;;;;4226179;27;20207;-77
2022/07/09 10:34:57;;;;;;;2.33;2.00;;;21.30;99.90;;;;;;4229119;27;20519;-77
2022/07/09 10:36:59;;;;;;;2.47;1.90;;;21.40;99.90;;;;;;4240114;27;20202;-77
2022/07/09 10:39:03;;;;;;;2.63;2.30;;;21.40;99.90;;;;;;4238612;27;20234;-77
2022/07/09 10:41:05;;;;;;;2.53;2.30;;;21.50;99.90;;;;;;4228389;27;20227;-77
2022/07/09 10:43:07;;;;;;;7.83;2.30;;;21.40;99.90;;;;;;4217396;22;20246;-78
2022/07/09 10:45:23;;;;;;;2.83;2.20;;;21.40;99.90;;;;;;4184761;28;20277;-79
2022/07/09 10:47:42;;;;;;;2.30;2.00;;;21.40;99.90;;;;;;4186328;28;20301;-77
2022/07/09 10:49:44;;;;;;;2.70;2.00;;;21.30;99.90;;;;;;4187142;28;20612;-78
2022/07/09 10:51:49;;;;;;;3.43;2.17;;;21.20;99.90;;;;;;4183872;28;20656;-77
2022/07/09 10:53:51;;;;;;;2.43;1.90;;;21.20;99.90;;;;;;4183756;28;20201;-78
2022/07/09 10:55:53;;;;;;;3.77;2.17;;;21.20;99.90;;;;;;4182688;28;20207;-77
2022/07/09 10:57:56;;;;;;;3.93;2.13;;;21.20;99.90;;;;;;4179266;28;20215;-77
2022/07/09 10:59:58;;;;;;;2.97;2.00;;;21.20;99.90;;;;;;4178521;28;20195;-78
2022/07/09 11:02:02;;;;;;;2.53;2.00;;;21.30;99.90;;;;;;4182141;28;20230;-78
2022/07/09 11:04:06;;;;;;;3.40;1.63;;;21.40;99.90;;;;;;4181230;28;20217;-77
2022/07/09 11:06:09;;;;;;;2.07;1.70;;;21.40;99.90;;;;;;4184495;28;20197;-79
2022/07/09 11:08:12;;;;;;;3.10;1.80;;;21.50;99.90;;;;;;4185591;28;20256;-78
2022/07/09 11:10:20;;;;;;;2.83;1.57;;;21.60;99.90;;;;;;4183701;28;20313;-78
2022/07/09 11:12:23;;;;;;;2.53;1.70;;;21.70;99.90;;;;;;4197897;28;20736;-77
2022/07/09 11:14:28;;;;;;;1.80;1.40;;;21.80;99.90;;;;;;4183102;28;20236;-78
2022/07/09 11:16:33;;;;;;;3.13;1.30;;;21.80;99.90;;;;;;4187157;28;20202;-78
2022/07/09 11:18:35;;;;;;;2.23;1.50;;;21.80;99.90;;;;;;4183142;28;20596;-79
2022/07/09 11:20:43;;;;;;;1.60;1.47;;;21.70;99.90;;;;;;4186951;28;20636;-76
2022/07/09 11:22:49;;;;;;;1.73;1.23;;;21.70;99.90;;;;;;4183294;28;20224;-77
2022/07/09 11:24:57;;;;;;;3.07;1.40;;;21.80;99.90;;;;;;4182481;28;20666;-77
2022/07/09 11:27:03;;;;;;;1.30;1.20;;;21.80;99.90;;;;;;4177183;28;20217;-77
2022/07/09 11:29:08;;;;;;;1.57;1.30;;;21.70;99.90;;;;;;4176518;28;20305;-78
2022/07/09 11:31:13;;;;;;;1.60;1.23;;;21.70;99.90;;;;;;4183734;28;20199;-78
2022/07/09 11:33:16;;;;;;;1.37;1.17;;;21.70;99.90;;;;;;4185198;28;20280;-78
2022/07/09 11:35:29;;;;;;;1.70;1.30;;;21.60;99.90;;;;;;4182476;28;20248;-79
2022/07/09 11:37:32;;;;;;;1.40;1.30;;;21.60;99.90;;;;;;4184249;28;20202;-78